createdAt,value
2018-09-28T00:00:03.931Z,9.93
2018-09-28T00:05:03.928Z,9.77
2018-09-28T00:10:03.936Z,9.6
2018-09-28T00:15:03.951Z,9.44
2018-09-28T00:20:03.941Z,9.3
2018-09-28T00:25:03.938Z,9.1
2018-09-28T00:30:03.945Z,8.87
2018-09-28T00:35:03.941Z,8.73
2018-09-28T00:40:03.945Z,8.79
2018-09-28T00:45:03.956Z,9
2018-09-28T00:50:03.950Z,9.06
2018-09-28T00:55:03.957Z,9.15
2018-09-28T01:00:03.960Z,9.4
2018-09-28T01:05:03.958Z,9.66
2018-09-28T01:10:03.963Z,9.93
2018-09-28T01:15:03.979Z,10.05
2018-09-28T01:20:03.966Z,10.22
2018-09-28T01:25:03.970Z,10.29
2018-09-28T01:30:03.979Z,10.52
2018-09-28T01:35:03.976Z,10.73
2018-09-28T01:40:04.018Z,11.05
2018-09-28T01:45:03.991Z,11.28
2018-09-28T01:50:03.988Z,11.56
2018-09-28T01:55:03.987Z,11.83
2018-09-28T02:00:03.993Z,11.98
2018-09-28T02:05:03.990Z,12.13
2018-09-28T02:10:03.996Z,12.1
2018-09-28T02:15:04.018Z,12.12
2018-09-28T02:20:03.998Z,12.21
2018-09-28T02:25:04.002Z,12.13
2018-09-28T02:30:04.029Z,12.14
2018-09-28T02:35:04.008Z,12.19
2018-09-28T02:40:04.014Z,12.33
2018-09-28T02:45:04.078Z,12.38
2018-09-28T02:50:04.071Z,12.42
2018-09-28T02:55:04.015Z,12.47
2018-09-28T03:00:04.028Z,12.44
2018-09-28T03:05:04.025Z,12.44
2018-09-28T03:10:04.028Z,12.43
2018-09-28T03:15:04.037Z,12.28
2018-09-28T03:20:04.031Z,12.18
2018-09-28T03:25:04.039Z,12.18
2018-09-28T03:30:04.046Z,11.81
2018-09-28T03:35:04.040Z,11.68
2018-09-28T03:40:04.043Z,11.62
2018-09-28T03:45:04.055Z,11.49
2018-09-28T03:50:04.050Z,11.24
2018-09-28T03:55:04.052Z,10.92
2018-09-28T04:00:04.075Z,10.81
2018-09-28T04:05:04.058Z,10.48
2018-09-28T04:10:04.059Z,10.14
2018-09-28T04:15:04.104Z,9.54
2018-09-28T04:20:04.064Z,9.47
2018-09-28T04:25:04.063Z,9.43
2018-09-28T04:30:04.078Z,9.43
2018-09-28T04:35:04.071Z,41.01
2018-09-28T04:40:04.074Z,41.01
2018-09-28T04:45:04.103Z,9.18
2018-09-28T04:50:04.081Z,9.15
2018-09-28T04:55:04.083Z,9.43
2018-09-28T05:00:04.097Z,9.19
2018-09-28T05:05:04.090Z,9.18
2018-09-28T05:10:04.091Z,41.01
2018-09-28T05:15:04.107Z,9.43
2018-09-28T05:20:04.098Z,9.43
2018-09-28T05:25:04.100Z,9.54
2018-09-28T05:30:04.107Z,9.56
2018-09-28T05:35:04.111Z,9.52
2018-09-28T05:40:04.105Z,9.43
2018-09-28T05:45:04.132Z,9.43
2018-09-28T05:50:04.113Z,9.43
2018-09-28T05:55:04.115Z,9.45
2018-09-28T06:00:04.124Z,9.55
2018-09-28T06:05:04.132Z,10.12
2018-09-28T06:10:04.125Z,10.26
2018-09-28T06:15:04.136Z,10.92
2018-09-28T06:20:04.130Z,10.99
2018-09-28T06:25:04.130Z,11.08
2018-09-28T06:30:04.198Z,11.31
2018-09-28T06:35:04.137Z,11.59
2018-09-28T06:40:04.140Z,11.84
2018-09-28T06:45:04.168Z,11.94
2018-09-28T06:50:04.154Z,12.16
2018-09-28T06:55:04.146Z,12.2
2018-09-28T07:00:04.178Z,12.1
2018-09-28T07:05:04.155Z,12.06
2018-09-28T07:10:04.154Z,12.08
2018-09-28T07:15:04.162Z,12.15
2018-09-28T07:20:04.165Z,12.17
2018-09-28T07:25:04.217Z,12.28
2018-09-28T07:30:04.215Z,12.29
2018-09-28T07:35:04.184Z,12.29
2018-09-28T07:40:04.176Z,12.18
2018-09-28T07:45:04.195Z,12.07
2018-09-28T07:50:04.212Z,12.21
2018-09-28T07:55:04.178Z,12.28
2018-09-28T08:00:04.187Z,12.35
2018-09-28T08:05:04.184Z,12.4
2018-09-28T08:10:04.197Z,12.51
2018-09-28T08:15:04.199Z,12.73
2018-09-28T08:20:04.210Z,13.01
2018-09-28T08:25:04.181Z,13.17
2018-09-28T08:30:04.223Z,13.43
2018-09-28T08:35:04.200Z,13.51
2018-09-28T08:40:04.206Z,13.46
2018-09-28T08:45:04.202Z,13.65
2018-09-28T08:50:04.232Z,13.95
2018-09-28T08:55:04.213Z,14.12
2018-09-28T09:00:04.214Z,14.3
2018-09-28T09:05:04.227Z,14.51
2018-09-28T09:10:04.218Z,14.69
2018-09-28T09:15:04.221Z,14.73
2018-09-28T09:20:04.243Z,14.92
2018-09-28T09:25:04.227Z,14.91
2018-09-28T09:30:04.276Z,15.15
2018-09-28T09:35:04.253Z,15.6
2018-09-28T09:40:04.241Z,15.87
2018-09-28T09:45:04.236Z,15.8
2018-09-28T09:50:04.261Z,15.65
2018-09-28T09:55:04.244Z,15.51
2018-09-28T10:00:04.246Z,15.17
2018-09-28T10:05:04.259Z,15.18
2018-09-28T10:10:04.253Z,15.76
2018-09-28T10:15:04.255Z,15.85
2018-09-28T10:20:04.266Z,16.4
2018-09-28T10:25:04.264Z,17.24
2018-09-28T10:30:04.260Z,17.79
2018-09-28T10:35:04.284Z,17.61
2018-09-28T10:40:04.274Z,16.91
2018-09-28T10:45:04.273Z,16.73
2018-09-28T10:50:04.277Z,17.58
2018-09-28T10:55:04.276Z,17.85
2018-09-28T11:00:04.282Z,17.9
2018-09-28T11:05:04.293Z,17.83
2018-09-28T11:10:04.287Z,17.96
2018-09-28T11:15:04.294Z,18.62
2018-09-28T11:20:04.297Z,19.04
2018-09-28T11:25:04.298Z,18.39
2018-09-28T11:30:04.295Z,18.36
2018-09-28T11:35:04.308Z,18.64
2018-09-28T11:40:04.302Z,18.36
2018-09-28T11:45:04.308Z,17.92
2018-09-28T11:50:04.661Z,17.67
2018-09-28T11:55:04.309Z,17.05
2018-09-28T12:00:04.356Z,18.36
2018-09-28T12:05:04.394Z,17.91
2018-09-28T12:10:04.318Z,17.84
2018-09-28T12:15:04.321Z,17.67
2018-09-28T12:20:04.345Z,16.98
2018-09-28T12:25:04.329Z,16.98
2018-09-28T12:30:04.340Z,16.98
2018-09-28T12:35:04.348Z,16.3
2018-09-28T12:40:04.487Z,16.32
2018-09-28T12:45:04.395Z,16.3
2018-09-28T12:50:04.349Z,16.27
2018-09-28T12:55:04.348Z,16.05
2018-09-28T13:00:04.351Z,15.87
2018-09-28T13:05:04.370Z,15.61
2018-09-28T13:10:04.351Z,15.62
2018-09-28T13:15:04.496Z,15.47
2018-09-28T13:20:04.639Z,15.63
2018-09-28T13:25:04.366Z,15.77
2018-09-28T13:30:04.360Z,16.3
2018-09-28T13:35:04.376Z,16.44
2018-09-28T13:40:04.381Z,17.16
2018-09-28T13:45:04.389Z,17.67
2018-09-28T13:50:04.381Z,17.05
2018-09-28T13:55:04.403Z,16.41
2018-09-28T14:00:04.410Z,15.73
2018-09-28T14:05:04.383Z,15.61
2018-09-28T14:10:04.414Z,15.04
2018-09-28T14:15:04.390Z,15.18
2018-09-28T14:20:04.406Z,16.98
2018-09-28T14:25:04.413Z,16.99
2018-09-28T14:30:04.407Z,16.3
2018-09-28T14:35:04.406Z,15.25
2018-09-28T14:40:04.425Z,14.92
2018-09-28T14:45:04.405Z,14.42
2018-09-28T14:50:04.424Z,14.24
2018-09-28T14:55:04.474Z,14.28
2018-09-28T15:00:03.422Z,14.54
2018-09-28T15:05:03.422Z,17.67
2018-09-28T15:10:03.427Z,18.36
2018-09-28T15:15:03.438Z,16.98
2018-09-28T15:20:03.419Z,15.68
2018-09-28T15:25:03.430Z,14.92
2018-09-28T15:30:03.458Z,13.99
2018-09-28T15:35:03.448Z,13.58
2018-09-28T15:40:03.429Z,13.43
2018-09-28T15:45:03.457Z,13.29
2018-09-28T15:50:03.438Z,13.19
2018-09-28T15:55:03.443Z,13.03
2018-09-28T16:00:03.448Z,12.9
2018-09-28T16:05:03.443Z,12.84
2018-09-28T16:10:03.461Z,12.77
2018-09-28T16:15:03.467Z,12.58
2018-09-28T16:20:03.455Z,12.42
2018-09-28T16:25:03.466Z,12.32
2018-09-28T16:30:03.461Z,12.07
2018-09-28T16:35:03.485Z,11.89
2018-09-28T16:40:03.474Z,11.66
2018-09-28T16:45:03.475Z,11.47
2018-09-28T16:50:03.486Z,11.3
2018-09-28T16:55:03.483Z,11.1
2018-09-28T17:00:03.475Z,10.99
2018-09-28T17:05:03.488Z,10.89
2018-09-28T17:10:03.479Z,10.84
2018-09-28T17:15:03.485Z,10.68
2018-09-28T17:20:04.066Z,10.72
2018-09-28T17:25:03.490Z,10.57
2018-09-28T17:30:03.492Z,10.51
2018-09-28T17:35:03.603Z,10.39
2018-09-28T17:40:03.506Z,10.27
2018-09-28T17:45:03.497Z,10.11
2018-09-28T17:50:03.534Z,10.07
2018-09-28T17:55:03.505Z,10.05
2018-09-28T18:00:03.509Z,9.98
2018-09-28T18:05:03.516Z,9.79
2018-09-28T18:10:03.513Z,9.78
2018-09-28T18:15:03.509Z,9.63
2018-09-28T18:20:03.593Z,9.6
2018-09-28T18:25:03.530Z,9.44
2018-09-28T18:30:03.530Z,9.33
2018-09-28T18:35:03.551Z,9.29
2018-09-28T18:40:03.534Z,9.19
2018-09-28T18:45:03.528Z,9.17
2018-09-28T18:50:03.555Z,9.03
2018-09-28T18:55:03.537Z,8.93
2018-09-28T19:00:03.543Z,8.89
2018-09-28T19:05:03.550Z,8.91
2018-09-28T19:10:03.546Z,8.89
2018-09-28T19:15:03.551Z,8.75
2018-09-28T19:20:03.568Z,8.57
2018-09-28T19:25:03.553Z,8.55
2018-09-28T19:30:03.555Z,8.62
2018-09-28T19:35:03.578Z,8.5
2018-09-28T19:40:03.563Z,8.34
2018-09-28T19:45:03.566Z,8.23
2018-09-28T19:50:03.585Z,8.22
2018-09-28T19:55:03.569Z,8.29
2018-09-28T20:00:03.570Z,8.12
2018-09-28T20:05:03.591Z,7.82
2018-09-28T20:10:03.575Z,7.69
2018-09-28T20:15:03.582Z,7.55
2018-09-28T20:20:03.590Z,7.37
2018-09-28T20:25:03.588Z,7.16
2018-09-28T20:30:03.584Z,7.05
2018-09-28T20:35:03.612Z,6.87
2018-09-28T20:40:03.592Z,6.84
2018-09-28T20:45:03.598Z,6.74
2018-09-28T20:50:03.612Z,6.69
2018-09-28T20:55:03.595Z,6.78
2018-09-28T21:00:03.602Z,6.78
2018-09-28T21:05:03.623Z,6.75
2018-09-28T21:10:03.606Z,6.69
2018-09-28T21:15:03.611Z,6.63
2018-09-28T21:20:03.615Z,6.67
2018-09-28T21:25:03.614Z,6.82
2018-09-28T21:30:03.623Z,6.86
2018-09-28T21:35:03.627Z,6.8
2018-09-28T21:40:03.741Z,6.66
2018-09-28T21:45:03.623Z,6.55
2018-09-28T21:50:03.631Z,6.53
2018-09-28T21:55:03.648Z,6.55
2018-09-28T22:00:03.629Z,6.5
2018-09-28T22:05:03.635Z,6.4
2018-09-28T22:10:03.745Z,6.44
2018-09-28T22:15:03.744Z,6.44
2018-09-28T22:20:03.744Z,6.3
2018-09-28T22:25:03.758Z,6.1
2018-09-28T22:30:03.751Z,5.97
2018-09-28T22:35:03.751Z,5.8
2018-09-28T22:40:03.755Z,5.57
2018-09-28T22:45:03.748Z,5.41
2018-09-28T22:50:03.748Z,5.12
2018-09-28T22:55:03.759Z,4.83
2018-09-28T23:00:03.748Z,4.47
2018-09-28T23:05:03.748Z,4.13
2018-09-28T23:10:03.770Z,4.04
2018-09-28T23:15:03.744Z,3.92
2018-09-28T23:20:03.744Z,3.77
2018-09-28T23:25:03.757Z,3.72
2018-09-28T23:30:03.749Z,3.58
2018-09-28T23:35:03.746Z,3.33
2018-09-28T23:40:03.751Z,3.05
2018-09-28T23:45:03.747Z,2.81
2018-09-28T23:50:03.752Z,2.62
2018-09-28T23:55:03.747Z,2.45
